sensor_id;sensor_type;location;lat;lon;timestamp;P1;durP1;ratioP1;P2;durP2;ratioP2
65717;SDS011;52445;52.466;-1.016;2023-11-18T00:01:34;8.25;;;2.67;;
65717;SDS011;52445;52.466;-1.016;2023-11-18T00:04:01;2.65;;;2.17;;
65717;SDS011;52445;52.466;-1.016;2023-11-18T00:06:28;6.80;;;2.47;;
65717;SDS011;52445;52.466;-1.016;2023-11-18T00:08:55;11.57;;;3.10;;
65717;SDS011;52445;52.466;-1.016;2023-11-18T00:11:21;4.63;;;2.72;;
65717;SDS011;52445;52.466;-1.016;2023-11-18T00:13:48;2.85;;;2.58;;
65717;SDS011;52445;52.466;-1.016;2023-11-18T00:16:15;2.75;;;2.55;;
65717;SDS011;52445;52.466;-1.016;2023-11-18T00:18:43;4.07;;;2.72;;
65717;SDS011;52445;52.466;-1.016;2023-11-18T00:21:09;3.58;;;2.42;;
65717;SDS011;52445;52.466;-1.016;2023-11-18T00:23:36;2.38;;;2.25;;
65717;SDS011;52445;52.466;-1.016;2023-11-18T00:26:03;2.53;;;2.05;;
65717;SDS011;52445;52.466;-1.016;2023-11-18T00:28:33;6.13;;;1.95;;
65717;SDS011;52445;52.466;-1.016;2023-11-18T00:31:00;3.35;;;2.35;;
65717;SDS011;52445;52.466;-1.016;2023-11-18T00:33:27;2.65;;;1.95;;
65717;SDS011;52445;52.466;-1.016;2023-11-18T00:35:53;4.20;;;2.05;;
65717;SDS011;52445;52.466;-1.016;2023-11-18T00:38:20;2.78;;;2.25;;
65717;SDS011;52445;52.466;-1.016;2023-11-18T00:40:47;5.40;;;2.42;;
65717;SDS011;52445;52.466;-1.016;2023-11-18T00:43:13;2.60;;;1.58;;
65717;SDS011;52445;52.466;-1.016;2023-11-18T00:45:40;1.95;;;1.63;;
65717;SDS011;52445;52.466;-1.016;2023-11-18T00:48:09;3.50;;;2.30;;
65717;SDS011;52445;52.466;-1.016;2023-11-18T00:50:36;5.82;;;2.33;;
65717;SDS011;52445;52.466;-1.016;2023-11-18T00:53:03;2.75;;;2.55;;
65717;SDS011;52445;52.466;-1.016;2023-11-18T00:55:31;2.28;;;1.92;;
65717;SDS011;52445;52.466;-1.016;2023-11-18T00:57:58;4.45;;;0.90;;
65717;SDS011;52445;52.466;-1.016;2023-11-18T01:00:27;2.28;;;2.17;;
65717;SDS011;52445;52.466;-1.016;2023-11-18T01:02:54;4.63;;;2.72;;
65717;SDS011;52445;52.466;-1.016;2023-11-18T01:05:21;2.13;;;1.92;;
65717;SDS011;52445;52.466;-1.016;2023-11-18T01:07:48;2.03;;;1.92;;
65717;SDS011;52445;52.466;-1.016;2023-11-18T01:10:15;2.58;;;2.35;;
65717;SDS011;52445;52.466;-1.016;2023-11-18T01:12:41;4.63;;;2.70;;
65717;SDS011;52445;52.466;-1.016;2023-11-18T01:15:11;4.80;;;2.42;;
65717;SDS011;52445;52.466;-1.016;2023-11-18T01:17:38;2.50;;;2.40;;
65717;SDS011;52445;52.466;-1.016;2023-11-18T01:20:06;2.53;;;2.33;;
65717;SDS011;52445;52.466;-1.016;2023-11-18T01:22:37;3.00;;;1.67;;
65717;SDS011;52445;52.466;-1.016;2023-11-18T01:25:05;2.10;;;1.75;;
65717;SDS011;52445;52.466;-1.016;2023-11-18T01:27:34;1.83;;;1.73;;
65717;SDS011;52445;52.466;-1.016;2023-11-18T01:30:01;3.28;;;2.28;;
65717;SDS011;52445;52.466;-1.016;2023-11-18T01:32:28;2.85;;;1.77;;
65717;SDS011;52445;52.466;-1.016;2023-11-18T01:34:56;2.35;;;2.15;;
65717;SDS011;52445;52.466;-1.016;2023-11-18T01:37:23;5.28;;;3.13;;
65717;SDS011;52445;52.466;-1.016;2023-11-18T01:39:51;2.63;;;2.35;;
65717;SDS011;52445;52.466;-1.016;2023-11-18T01:42:17;1.80;;;1.70;;
65717;SDS011;52445;52.466;-1.016;2023-11-18T01:44:44;3.15;;;2.85;;
65717;SDS011;52445;52.466;-1.016;2023-11-18T01:47:11;2.17;;;1.98;;
65717;SDS011;52445;52.466;-1.016;2023-11-18T01:49:39;2.25;;;2.15;;
65717;SDS011;52445;52.466;-1.016;2023-11-18T01:52:07;2.15;;;1.98;;
65717;SDS011;52445;52.466;-1.016;2023-11-18T01:54:35;2.45;;;2.25;;
65717;SDS011;52445;52.466;-1.016;2023-11-18T01:57:04;2.00;;;1.63;;
65717;SDS011;52445;52.466;-1.016;2023-11-18T01:59:33;1.63;;;1.52;;
65717;SDS011;52445;52.466;-1.016;2023-11-18T02:02:00;4.65;;;2.00;;
65717;SDS011;52445;52.466;-1.016;2023-11-18T02:04:29;3.15;;;2.35;;
65717;SDS011;52445;52.466;-1.016;2023-11-18T02:06:57;2.38;;;2.20;;
65717;SDS011;52445;52.466;-1.016;2023-11-18T02:09:24;4.07;;;2.17;;
65717;SDS011;52445;52.466;-1.016;2023-11-18T02:14:33;1.35;;;0.70;;
65717;SDS011;52445;52.466;-1.016;2023-11-18T02:17:21;3.15;;;1.70;;
65717;SDS011;52445;52.466;-1.016;2023-11-18T02:19:52;1.35;;;0.60;;
65717;SDS011;52445;52.466;-1.016;2023-11-18T02:22:19;2.83;;;0.70;;
65717;SDS011;52445;52.466;-1.016;2023-11-18T02:24:48;0.90;;;0.60;;
65717;SDS011;52445;52.466;-1.016;2023-11-18T02:27:15;0.77;;;0.63;;
65717;SDS011;52445;52.466;-1.016;2023-11-18T02:29:44;1.83;;;0.70;;
65717;SDS011;52445;52.466;-1.016;2023-11-18T02:34:53;1.15;;;0.98;;
65717;SDS011;52445;52.466;-1.016;2023-11-18T02:37:27;1.52;;;1.42;;
65717;SDS011;52445;52.466;-1.016;2023-11-18T02:40:02;3.10;;;0.73;;
65717;SDS011;52445;52.466;-1.016;2023-11-18T02:42:41;1.13;;;0.70;;
65717;SDS011;52445;52.466;-1.016;2023-11-18T02:45:11;2.60;;;0.60;;
65717;SDS011;52445;52.466;-1.016;2023-11-18T02:47:45;2.65;;;1.10;;
65717;SDS011;52445;52.466;-1.016;2023-11-18T02:50:12;1.50;;;0.60;;
65717;SDS011;52445;52.466;-1.016;2023-11-18T02:52:40;1.83;;;1.40;;
65717;SDS011;52445;52.466;-1.016;2023-11-18T02:55:07;1.15;;;1.05;;
65717;SDS011;52445;52.466;-1.016;2023-11-18T02:57:35;2.58;;;0.80;;
65717;SDS011;52445;52.466;-1.016;2023-11-18T03:00:04;2.55;;;0.80;;
65717;SDS011;52445;52.466;-1.016;2023-11-18T03:02:50;1.33;;;0.70;;
65717;SDS011;52445;52.466;-1.016;2023-11-18T03:05:19;0.95;;;0.68;;
65717;SDS011;52445;52.466;-1.016;2023-11-18T03:07:46;0.70;;;0.63;;
65717;SDS011;52445;52.466;-1.016;2023-11-18T03:10:16;1.05;;;0.95;;
65717;SDS011;52445;52.466;-1.016;2023-11-18T03:12:48;2.08;;;0.63;;
65717;SDS011;52445;52.466;-1.016;2023-11-18T03:15:17;2.50;;;1.48;;
65717;SDS011;52445;52.466;-1.016;2023-11-18T03:17:45;4.40;;;1.17;;
65717;SDS011;52445;52.466;-1.016;2023-11-18T03:20:16;1.88;;;1.13;;
65717;SDS011;52445;52.466;-1.016;2023-11-18T03:22:43;4.25;;;1.10;;
65717;SDS011;52445;52.466;-1.016;2023-11-18T03:25:12;5.68;;;0.95;;
65717;SDS011;52445;52.466;-1.016;2023-11-18T03:27:39;0.93;;;0.90;;
65717;SDS011;52445;52.466;-1.016;2023-11-18T03:30:07;0.90;;;0.50;;
65717;SDS011;52445;52.466;-1.016;2023-11-18T03:32:35;1.17;;;0.75;;
65717;SDS011;52445;52.466;-1.016;2023-11-18T03:35:03;1.65;;;0.60;;
65717;SDS011;52445;52.466;-1.016;2023-11-18T03:37:34;1.92;;;0.82;;
65717;SDS011;52445;52.466;-1.016;2023-11-18T03:40:01;1.08;;;0.70;;
65717;SDS011;52445;52.466;-1.016;2023-11-18T03:42:28;2.22;;;0.73;;
65717;SDS011;52445;52.466;-1.016;2023-11-18T03:44:55;1.00;;;0.90;;
65717;SDS011;52445;52.466;-1.016;2023-11-18T03:47:21;1.40;;;1.30;;
65717;SDS011;52445;52.466;-1.016;2023-11-18T03:49:50;0.73;;;0.30;;
65717;SDS011;52445;52.466;-1.016;2023-11-18T03:52:17;1.08;;;1.05;;
65717;SDS011;52445;52.466;-1.016;2023-11-18T03:54:44;1.50;;;1.45;;
65717;SDS011;52445;52.466;-1.016;2023-11-18T03:57:10;0.82;;;0.50;;
65717;SDS011;52445;52.466;-1.016;2023-11-18T03:59:38;0.35;;;0.35;;
65717;SDS011;52445;52.466;-1.016;2023-11-18T04:02:05;1.15;;;0.70;;
65717;SDS011;52445;52.466;-1.016;2023-11-18T04:04:32;0.73;;;0.73;;
65717;SDS011;52445;52.466;-1.016;2023-11-18T04:06:59;0.80;;;0.40;;
65717;SDS011;52445;52.466;-1.016;2023-11-18T04:09:27;0.77;;;0.77;;
65717;SDS011;52445;52.466;-1.016;2023-11-18T04:11:54;0.47;;;0.47;;
65717;SDS011;52445;52.466;-1.016;2023-11-18T04:14:20;0.60;;;0.47;;
65717;SDS011;52445;52.466;-1.016;2023-11-18T04:16:48;1.10;;;0.82;;
65717;SDS011;52445;52.466;-1.016;2023-11-18T04:19:15;0.57;;;0.50;;
65717;SDS011;52445;52.466;-1.016;2023-11-18T04:21:42;0.88;;;0.88;;
65717;SDS011;52445;52.466;-1.016;2023-11-18T04:24:09;0.80;;;0.80;;
65717;SDS011;52445;52.466;-1.016;2023-11-18T04:26:36;4.75;;;0.77;;
65717;SDS011;52445;52.466;-1.016;2023-11-18T04:29:03;1.17;;;1.08;;
65717;SDS011;52445;52.466;-1.016;2023-11-18T04:31:30;0.73;;;0.52;;
65717;SDS011;52445;52.466;-1.016;2023-11-18T04:33:57;0.60;;;0.60;;
65717;SDS011;52445;52.466;-1.016;2023-11-18T04:36:24;0.65;;;0.65;;
65717;SDS011;52445;52.466;-1.016;2023-11-18T04:38:50;1.23;;;0.90;;
65717;SDS011;52445;52.466;-1.016;2023-11-18T04:41:17;0.90;;;0.73;;
65717;SDS011;52445;52.466;-1.016;2023-11-18T04:43:44;0.70;;;0.57;;
65717;SDS011;52445;52.466;-1.016;2023-11-18T04:46:11;0.65;;;0.63;;
65717;SDS011;52445;52.466;-1.016;2023-11-18T04:48:38;0.52;;;0.50;;
65717;SDS011;52445;52.466;-1.016;2023-11-18T04:51:08;1.00;;;0.80;;
65717;SDS011;52445;52.466;-1.016;2023-11-18T04:53:34;1.40;;;0.98;;
65717;SDS011;52445;52.466;-1.016;2023-11-18T04:56:01;1.10;;;1.02;;
65717;SDS011;52445;52.466;-1.016;2023-11-18T04:58:29;1.50;;;0.93;;
65717;SDS011;52445;52.466;-1.016;2023-11-18T05:00:56;1.98;;;0.52;;
65717;SDS011;52445;52.466;-1.016;2023-11-18T05:03:23;1.05;;;0.95;;
65717;SDS011;52445;52.466;-1.016;2023-11-18T05:05:50;2.08;;;1.35;;
65717;SDS011;52445;52.466;-1.016;2023-11-18T05:08:21;0.95;;;0.85;;
65717;SDS011;52445;52.466;-1.016;2023-11-18T05:10:48;1.15;;;1.05;;
65717;SDS011;52445;52.466;-1.016;2023-11-18T05:13:17;0.88;;;0.60;;
65717;SDS011;52445;52.466;-1.016;2023-11-18T05:15:45;0.80;;;0.57;;
65717;SDS011;52445;52.466;-1.016;2023-11-18T05:18:13;1.55;;;1.25;;
65717;SDS011;52445;52.466;-1.016;2023-11-18T05:20:42;1.08;;;0.68;;
65717;SDS011;52445;52.466;-1.016;2023-11-18T05:23:10;1.02;;;0.50;;
65717;SDS011;52445;52.466;-1.016;2023-11-18T05:25:39;0.50;;;0.50;;
65717;SDS011;52445;52.466;-1.016;2023-11-18T05:28:06;0.73;;;0.63;;
65717;SDS011;52445;52.466;-1.016;2023-11-18T05:30:38;0.80;;;0.80;;
65717;SDS011;52445;52.466;-1.016;2023-11-18T05:33:09;1.20;;;0.68;;
65717;SDS011;52445;52.466;-1.016;2023-11-18T05:35:41;1.05;;;0.95;;
65717;SDS011;52445;52.466;-1.016;2023-11-18T05:38:15;2.20;;;0.85;;
65717;SDS011;52445;52.466;-1.016;2023-11-18T05:40:48;1.38;;;1.27;;
65717;SDS011;52445;52.466;-1.016;2023-11-18T05:43:24;1.50;;;1.20;;
65717;SDS011;52445;52.466;-1.016;2023-11-18T05:45:55;1.48;;;0.60;;
65717;SDS011;52445;52.466;-1.016;2023-11-18T05:48:42;1.15;;;0.65;;
65717;SDS011;52445;52.466;-1.016;2023-11-18T05:51:10;0.70;;;0.57;;
65717;SDS011;52445;52.466;-1.016;2023-11-18T05:53:39;0.55;;;0.43;;
65717;SDS011;52445;52.466;-1.016;2023-11-18T05:56:07;1.65;;;0.70;;
65717;SDS011;52445;52.466;-1.016;2023-11-18T05:58:35;3.00;;;0.55;;
65717;SDS011;52445;52.466;-1.016;2023-11-18T06:01:03;0.73;;;0.73;;
65717;SDS011;52445;52.466;-1.016;2023-11-18T06:03:31;1.30;;;1.20;;
65717;SDS011;52445;52.466;-1.016;2023-11-18T06:05:58;0.95;;;0.93;;
65717;SDS011;52445;52.466;-1.016;2023-11-18T06:08:24;1.65;;;0.80;;
65717;SDS011;52445;52.466;-1.016;2023-11-18T06:10:51;0.77;;;0.77;;
65717;SDS011;52445;52.466;-1.016;2023-11-18T06:13:22;1.02;;;0.63;;
65717;SDS011;52445;52.466;-1.016;2023-11-18T06:15:50;0.75;;;0.60;;
65717;SDS011;52445;52.466;-1.016;2023-11-18T06:18:17;0.65;;;0.43;;
65717;SDS011;52445;52.466;-1.016;2023-11-18T06:20:45;1.13;;;0.43;;
65717;SDS011;52445;52.466;-1.016;2023-11-18T06:23:12;0.50;;;0.50;;
65717;SDS011;52445;52.466;-1.016;2023-11-18T06:25:41;0.77;;;0.60;;
65717;SDS011;52445;52.466;-1.016;2023-11-18T06:28:08;0.57;;;0.50;;
65717;SDS011;52445;52.466;-1.016;2023-11-18T06:30:35;0.55;;;0.43;;
65717;SDS011;52445;52.466;-1.016;2023-11-18T06:33:02;1.52;;;0.60;;
65717;SDS011;52445;52.466;-1.016;2023-11-18T06:35:29;0.65;;;0.65;;
65717;SDS011;52445;52.466;-1.016;2023-11-18T06:37:56;0.52;;;0.52;;
65717;SDS011;52445;52.466;-1.016;2023-11-18T06:40:25;0.77;;;0.75;;
65717;SDS011;52445;52.466;-1.016;2023-11-18T06:42:53;0.60;;;0.60;;
65717;SDS011;52445;52.466;-1.016;2023-11-18T06:45:27;0.43;;;0.43;;
65717;SDS011;52445;52.466;-1.016;2023-11-18T06:47:54;0.95;;;0.95;;
65717;SDS011;52445;52.466;-1.016;2023-11-18T06:50:21;0.40;;;0.38;;
65717;SDS011;52445;52.466;-1.016;2023-11-18T06:52:50;0.52;;;0.52;;
65717;SDS011;52445;52.466;-1.016;2023-11-18T06:55:17;0.40;;;0.40;;
65717;SDS011;52445;52.466;-1.016;2023-11-18T06:57:44;1.00;;;1.00;;
65717;SDS011;52445;52.466;-1.016;2023-11-18T07:00:11;0.68;;;0.68;;
65717;SDS011;52445;52.466;-1.016;2023-11-18T07:02:40;0.43;;;0.43;;
65717;SDS011;52445;52.466;-1.016;2023-11-18T07:05:07;0.25;;;0.25;;
65717;SDS011;52445;52.466;-1.016;2023-11-18T07:07:34;0.30;;;0.28;;
65717;SDS011;52445;52.466;-1.016;2023-11-18T07:10:01;0.50;;;0.40;;
65717;SDS011;52445;52.466;-1.016;2023-11-18T07:12:28;0.57;;;0.57;;
65717;SDS011;52445;52.466;-1.016;2023-11-18T07:14:55;0.43;;;0.43;;
65717;SDS011;52445;52.466;-1.016;2023-11-18T07:17:21;0.75;;;0.75;;
65717;SDS011;52445;52.466;-1.016;2023-11-18T07:19:48;0.73;;;0.73;;
65717;SDS011;52445;52.466;-1.016;2023-11-18T07:22:15;0.30;;;0.30;;
65717;SDS011;52445;52.466;-1.016;2023-11-18T07:24:42;0.40;;;0.40;;
65717;SDS011;52445;52.466;-1.016;2023-11-18T07:27:09;0.45;;;0.45;;
65717;SDS011;52445;52.466;-1.016;2023-11-18T07:29:37;0.80;;;0.73;;
65717;SDS011;52445;52.466;-1.016;2023-11-18T07:32:04;0.50;;;0.40;;
65717;SDS011;52445;52.466;-1.016;2023-11-18T07:34:32;0.73;;;0.73;;
65717;SDS011;52445;52.466;-1.016;2023-11-18T07:36:59;0.45;;;0.30;;
65717;SDS011;52445;52.466;-1.016;2023-11-18T07:39:28;0.80;;;0.80;;
65717;SDS011;52445;52.466;-1.016;2023-11-18T07:42:11;0.45;;;0.45;;
65717;SDS011;52445;52.466;-1.016;2023-11-18T07:44:38;0.70;;;0.70;;
65717;SDS011;52445;52.466;-1.016;2023-11-18T07:47:06;0.40;;;0.40;;
65717;SDS011;52445;52.466;-1.016;2023-11-18T07:49:34;0.90;;;0.90;;
65717;SDS011;52445;52.466;-1.016;2023-11-18T07:52:02;0.40;;;0.40;;
65717;SDS011;52445;52.466;-1.016;2023-11-18T07:54:29;0.68;;;0.68;;
65717;SDS011;52445;52.466;-1.016;2023-11-18T07:56:56;0.68;;;0.63;;
65717;SDS011;52445;52.466;-1.016;2023-11-18T07:59:23;1.92;;;1.17;;
65717;SDS011;52445;52.466;-1.016;2023-11-18T08:01:50;0.43;;;0.38;;
65717;SDS011;52445;52.466;-1.016;2023-11-18T08:04:17;0.35;;;0.32;;
65717;SDS011;52445;52.466;-1.016;2023-11-18T08:06:47;0.93;;;0.93;;
65717;SDS011;52445;52.466;-1.016;2023-11-18T08:09:14;0.55;;;0.28;;
65717;SDS011;52445;52.466;-1.016;2023-11-18T08:11:41;0.80;;;0.75;;
65717;SDS011;52445;52.466;-1.016;2023-11-18T08:14:08;0.57;;;0.57;;
65717;SDS011;52445;52.466;-1.016;2023-11-18T08:16:34;0.52;;;0.45;;
65717;SDS011;52445;52.466;-1.016;2023-11-18T08:19:02;0.98;;;0.93;;
65717;SDS011;52445;52.466;-1.016;2023-11-18T08:21:29;1.45;;;1.42;;
65717;SDS011;52445;52.466;-1.016;2023-11-18T08:23:56;0.77;;;0.60;;
65717;SDS011;52445;52.466;-1.016;2023-11-18T08:26:22;0.50;;;0.50;;
65717;SDS011;52445;52.466;-1.016;2023-11-18T08:28:49;1.13;;;1.02;;
65717;SDS011;52445;52.466;-1.016;2023-11-18T08:31:15;1.77;;;1.67;;
65717;SDS011;52445;52.466;-1.016;2023-11-18T08:33:43;0.95;;;0.77;;
65717;SDS011;52445;52.466;-1.016;2023-11-18T08:36:11;2.65;;;1.20;;
65717;SDS011;52445;52.466;-1.016;2023-11-18T08:38:38;2.58;;;1.85;;
65717;SDS011;52445;52.466;-1.016;2023-11-18T08:41:06;4.05;;;1.83;;
65717;SDS011;52445;52.466;-1.016;2023-11-18T08:43:35;2.55;;;1.35;;
65717;SDS011;52445;52.466;-1.016;2023-11-18T08:46:02;2.53;;;1.50;;
65717;SDS011;52445;52.466;-1.016;2023-11-18T08:48:28;2.38;;;1.08;;
65717;SDS011;52445;52.466;-1.016;2023-11-18T08:50:55;2.28;;;1.83;;
65717;SDS011;52445;52.466;-1.016;2023-11-18T08:53:22;2.17;;;1.45;;
65717;SDS011;52445;52.466;-1.016;2023-11-18T08:55:53;1.58;;;1.27;;
65717;SDS011;52445;52.466;-1.016;2023-11-18T08:58:21;1.17;;;1.00;;
65717;SDS011;52445;52.466;-1.016;2023-11-18T09:00:49;1.50;;;1.30;;
65717;SDS011;52445;52.466;-1.016;2023-11-18T09:03:28;1.30;;;0.70;;
65717;SDS011;52445;52.466;-1.016;2023-11-18T09:05:57;1.15;;;0.73;;
65717;SDS011;52445;52.466;-1.016;2023-11-18T09:08:26;2.78;;;0.73;;
65717;SDS011;52445;52.466;-1.016;2023-11-18T09:11:02;1.42;;;0.60;;
65717;SDS011;52445;52.466;-1.016;2023-11-18T09:13:32;0.80;;;0.50;;
65717;SDS011;52445;52.466;-1.016;2023-11-18T09:16:02;0.73;;;0.47;;
65717;SDS011;52445;52.466;-1.016;2023-11-18T09:18:35;1.10;;;0.90;;
65717;SDS011;52445;52.466;-1.016;2023-11-18T09:21:08;0.60;;;0.60;;
65717;SDS011;52445;52.466;-1.016;2023-11-18T09:23:42;1.95;;;0.95;;
65717;SDS011;52445;52.466;-1.016;2023-11-18T09:26:09;1.73;;;0.43;;
65717;SDS011;52445;52.466;-1.016;2023-11-18T09:28:37;2.42;;;1.05;;
65717;SDS011;52445;52.466;-1.016;2023-11-18T09:31:04;1.10;;;0.60;;
65717;SDS011;52445;52.466;-1.016;2023-11-18T09:33:32;1.55;;;0.63;;
65717;SDS011;52445;52.466;-1.016;2023-11-18T09:36:01;2.20;;;1.20;;
65717;SDS011;52445;52.466;-1.016;2023-11-18T09:38:30;2.40;;;1.40;;
65717;SDS011;52445;52.466;-1.016;2023-11-18T09:40:59;5.07;;;1.05;;
65717;SDS011;52445;52.466;-1.016;2023-11-18T09:43:29;3.05;;;1.20;;
65717;SDS011;52445;52.466;-1.016;2023-11-18T09:46:03;3.05;;;1.60;;
65717;SDS011;52445;52.466;-1.016;2023-11-18T09:51:20;2.33;;;2.13;;
65717;SDS011;52445;52.466;-1.016;2023-11-18T09:53:51;2.83;;;1.73;;
65717;SDS011;52445;52.466;-1.016;2023-11-18T09:56:55;4.45;;;2.33;;
65717;SDS011;52445;52.466;-1.016;2023-11-18T09:59:18;3.58;;;1.33;;
65717;SDS011;52445;52.466;-1.016;2023-11-18T10:01:56;2.92;;;2.72;;
65717;SDS011;52445;52.466;-1.016;2023-11-18T10:04:24;2.25;;;2.15;;
65717;SDS011;52445;52.466;-1.016;2023-11-18T10:06:54;2.15;;;1.98;;
65717;SDS011;52445;52.466;-1.016;2023-11-18T10:09:23;2.08;;;1.80;;
65717;SDS011;52445;52.466;-1.016;2023-11-18T10:11:55;4.43;;;1.88;;
65717;SDS011;52445;52.466;-1.016;2023-11-18T10:14:33;1.85;;;1.75;;
65717;SDS011;52445;52.466;-1.016;2023-11-18T10:17:03;2.33;;;2.22;;
65717;SDS011;52445;52.466;-1.016;2023-11-18T10:22:27;3.30;;;2.83;;
65717;SDS011;52445;52.466;-1.016;2023-11-18T10:24:56;4.28;;;2.60;;
65717;SDS011;52445;52.466;-1.016;2023-11-18T10:27:23;4.75;;;3.25;;
65717;SDS011;52445;52.466;-1.016;2023-11-18T10:29:55;7.85;;;3.55;;
65717;SDS011;52445;52.466;-1.016;2023-11-18T10:32:23;5.55;;;3.28;;
65717;SDS011;52445;52.466;-1.016;2023-11-18T10:34:56;5.20;;;3.05;;
65717;SDS011;52445;52.466;-1.016;2023-11-18T10:37:25;4.18;;;2.85;;
65717;SDS011;52445;52.466;-1.016;2023-11-18T10:39:51;5.28;;;3.08;;
65717;SDS011;52445;52.466;-1.016;2023-11-18T10:42:19;3.53;;;2.70;;
65717;SDS011;52445;52.466;-1.016;2023-11-18T10:45:01;4.60;;;2.03;;
65717;SDS011;52445;52.466;-1.016;2023-11-18T10:47:33;5.30;;;2.83;;
65717;SDS011;52445;52.466;-1.016;2023-11-18T10:50:05;3.67;;;2.40;;
65717;SDS011;52445;52.466;-1.016;2023-11-18T10:52:36;5.32;;;2.33;;
65717;SDS011;52445;52.466;-1.016;2023-11-18T10:55:03;5.60;;;3.50;;
65717;SDS011;52445;52.466;-1.016;2023-11-18T10:57:39;3.17;;;2.15;;
65717;SDS011;52445;52.466;-1.016;2023-11-18T11:00:08;1.98;;;1.70;;
65717;SDS011;52445;52.466;-1.016;2023-11-18T11:02:46;2.42;;;2.22;;
65717;SDS011;52445;52.466;-1.016;2023-11-18T11:05:32;1.73;;;1.58;;
65717;SDS011;52445;52.466;-1.016;2023-11-18T11:08:02;4.32;;;3.03;;
65717;SDS011;52445;52.466;-1.016;2023-11-18T11:10:31;2.50;;;2.30;;
65717;SDS011;52445;52.466;-1.016;2023-11-18T11:13:00;2.05;;;1.80;;
65717;SDS011;52445;52.466;-1.016;2023-11-18T11:15:30;2.55;;;2.35;;
65717;SDS011;52445;52.466;-1.016;2023-11-18T11:18:14;3.08;;;2.78;;
65717;SDS011;52445;52.466;-1.016;2023-11-18T11:20:56;1.90;;;1.73;;
65717;SDS011;52445;52.466;-1.016;2023-11-18T11:23:35;2.55;;;2.35;;
65717;SDS011;52445;52.466;-1.016;2023-11-18T11:31:59;4.97;;;2.35;;
65717;SDS011;52445;52.466;-1.016;2023-11-18T11:34:33;3.42;;;2.13;;
65717;SDS011;52445;52.466;-1.016;2023-11-18T11:37:03;3.03;;;1.25;;
65717;SDS011;52445;52.466;-1.016;2023-11-18T11:39:33;4.22;;;1.52;;
65717;SDS011;52445;52.466;-1.016;2023-11-18T11:42:02;2.45;;;1.40;;
65717;SDS011;52445;52.466;-1.016;2023-11-18T11:44:35;2.70;;;1.23;;
65717;SDS011;52445;52.466;-1.016;2023-11-18T11:47:08;1.90;;;1.00;;
65717;SDS011;52445;52.466;-1.016;2023-11-18T11:49:47;1.65;;;1.20;;
65717;SDS011;52445;52.466;-1.016;2023-11-18T11:52:28;1.33;;;0.90;;
65717;SDS011;52445;52.466;-1.016;2023-11-18T11:55:07;1.80;;;0.68;;
65717;SDS011;52445;52.466;-1.016;2023-11-18T11:57:39;3.35;;;1.77;;
65717;SDS011;52445;52.466;-1.016;2023-11-18T12:00:09;4.05;;;1.63;;
65717;SDS011;52445;52.466;-1.016;2023-11-18T12:02:48;1.92;;;1.05;;
65717;SDS011;52445;52.466;-1.016;2023-11-18T12:05:16;1.08;;;0.98;;
65717;SDS011;52445;52.466;-1.016;2023-11-18T12:07:52;1.50;;;0.70;;
65717;SDS011;52445;52.466;-1.016;2023-11-18T12:10:25;1.95;;;1.08;;
65717;SDS011;52445;52.466;-1.016;2023-11-18T12:13:09;2.95;;;0.90;;
65717;SDS011;52445;52.466;-1.016;2023-11-18T12:15:59;4.15;;;1.02;;
65717;SDS011;52445;52.466;-1.016;2023-11-18T12:18:31;3.38;;;1.63;;
65717;SDS011;52445;52.466;-1.016;2023-11-18T12:21:00;3.55;;;2.08;;
65717;SDS011;52445;52.466;-1.016;2023-11-18T12:23:29;5.30;;;2.15;;
65717;SDS011;52445;52.466;-1.016;2023-11-18T12:25:57;1.73;;;0.63;;
65717;SDS011;52445;52.466;-1.016;2023-11-18T12:28:25;4.20;;;0.77;;
65717;SDS011;52445;52.466;-1.016;2023-11-18T12:31:02;2.22;;;2.03;;
65717;SDS011;52445;52.466;-1.016;2023-11-18T12:41:42;2.50;;;1.20;;
65717;SDS011;52445;52.466;-1.016;2023-11-18T12:44:29;6.80;;;1.42;;
65717;SDS011;52445;52.466;-1.016;2023-11-18T12:46:59;4.35;;;1.27;;
65717;SDS011;52445;52.466;-1.016;2023-11-18T12:49:41;4.57;;;0.88;;
65717;SDS011;52445;52.466;-1.016;2023-11-18T12:52:09;5.10;;;1.40;;
65717;SDS011;52445;52.466;-1.016;2023-11-18T12:54:37;5.18;;;1.27;;
65717;SDS011;52445;52.466;-1.016;2023-11-18T12:57:07;4.30;;;2.03;;
65717;SDS011;52445;52.466;-1.016;2023-11-18T12:59:34;2.70;;;1.00;;
65717;SDS011;52445;52.466;-1.016;2023-11-18T13:02:02;3.60;;;1.60;;
65717;SDS011;52445;52.466;-1.016;2023-11-18T13:04:31;2.05;;;0.88;;
65717;SDS011;52445;52.466;-1.016;2023-11-18T13:06:58;4.38;;;1.00;;
65717;SDS011;52445;52.466;-1.016;2023-11-18T13:09:26;2.42;;;0.93;;
65717;SDS011;52445;52.466;-1.016;2023-11-18T13:14:29;2.67;;;0.90;;
65717;SDS011;52445;52.466;-1.016;2023-11-18T13:17:03;3.83;;;0.98;;
65717;SDS011;52445;52.466;-1.016;2023-11-18T13:19:35;4.53;;;1.17;;
65717;SDS011;52445;52.466;-1.016;2023-11-18T13:22:02;3.78;;;0.68;;
65717;SDS011;52445;52.466;-1.016;2023-11-18T13:24:35;3.83;;;1.10;;
65717;SDS011;52445;52.466;-1.016;2023-11-18T13:27:07;6.25;;;1.17;;
65717;SDS011;52445;52.466;-1.016;2023-11-18T13:29:36;5.95;;;1.13;;
65717;SDS011;52445;52.466;-1.016;2023-11-18T13:32:09;6.35;;;1.48;;
65717;SDS011;52445;52.466;-1.016;2023-11-18T13:34:37;8.05;;;1.40;;
65717;SDS011;52445;52.466;-1.016;2023-11-18T13:37:06;5.60;;;1.30;;
65717;SDS011;52445;52.466;-1.016;2023-11-18T13:39:34;4.85;;;1.42;;
65717;SDS011;52445;52.466;-1.016;2023-11-18T13:44:49;4.07;;;1.02;;
65717;SDS011;52445;52.466;-1.016;2023-11-18T13:47:17;6.32;;;0.60;;
65717;SDS011;52445;52.466;-1.016;2023-11-18T13:49:44;12.40;;;0.98;;
65717;SDS011;52445;52.466;-1.016;2023-11-18T13:52:12;4.85;;;2.78;;
65717;SDS011;52445;52.466;-1.016;2023-11-18T13:54:42;4.15;;;1.52;;
65717;SDS011;52445;52.466;-1.016;2023-11-18T13:57:11;1.98;;;0.50;;
65717;SDS011;52445;52.466;-1.016;2023-11-18T13:59:38;3.35;;;1.05;;
65717;SDS011;52445;52.466;-1.016;2023-11-18T14:02:05;3.10;;;0.70;;
65717;SDS011;52445;52.466;-1.016;2023-11-18T14:04:33;7.93;;;2.47;;
65717;SDS011;52445;52.466;-1.016;2023-11-18T14:07:00;3.28;;;1.05;;
65717;SDS011;52445;52.466;-1.016;2023-11-18T14:09:32;5.65;;;0.80;;
65717;SDS011;52445;52.466;-1.016;2023-11-18T14:12:06;5.70;;;0.70;;
65717;SDS011;52445;52.466;-1.016;2023-11-18T14:14:34;11.57;;;1.60;;
65717;SDS011;52445;52.466;-1.016;2023-11-18T14:17:02;9.20;;;2.10;;
65717;SDS011;52445;52.466;-1.016;2023-11-18T14:19:28;10.43;;;2.03;;
65717;SDS011;52445;52.466;-1.016;2023-11-18T14:21:55;3.92;;;1.20;;
65717;SDS011;52445;52.466;-1.016;2023-11-18T14:24:22;9.35;;;2.90;;
65717;SDS011;52445;52.466;-1.016;2023-11-18T14:26:54;7.10;;;1.38;;
65717;SDS011;52445;52.466;-1.016;2023-11-18T14:29:23;7.63;;;1.08;;
65717;SDS011;52445;52.466;-1.016;2023-11-18T14:31:53;7.47;;;2.42;;
65717;SDS011;52445;52.466;-1.016;2023-11-18T14:34:21;9.88;;;1.73;;
65717;SDS011;52445;52.466;-1.016;2023-11-18T14:36:48;8.50;;;1.20;;
65717;SDS011;52445;52.466;-1.016;2023-11-18T14:39:15;5.28;;;1.90;;
65717;SDS011;52445;52.466;-1.016;2023-11-18T14:41:45;8.50;;;1.88;;
65717;SDS011;52445;52.466;-1.016;2023-11-18T14:44:12;5.07;;;1.20;;
65717;SDS011;52445;52.466;-1.016;2023-11-18T14:46:39;8.73;;;2.10;;
65717;SDS011;52445;52.466;-1.016;2023-11-18T14:49:07;3.92;;;1.83;;
65717;SDS011;52445;52.466;-1.016;2023-11-18T14:51:36;7.80;;;1.20;;
65717;SDS011;52445;52.466;-1.016;2023-11-18T14:54:03;7.22;;;1.50;;
65717;SDS011;52445;52.466;-1.016;2023-11-18T14:56:32;4.55;;;0.93;;
65717;SDS011;52445;52.466;-1.016;2023-11-18T14:58:59;11.52;;;1.30;;
65717;SDS011;52445;52.466;-1.016;2023-11-18T15:01:26;11.63;;;1.77;;
65717;SDS011;52445;52.466;-1.016;2023-11-18T15:03:53;6.15;;;0.90;;
65717;SDS011;52445;52.466;-1.016;2023-11-18T15:06:27;12.00;;;1.65;;
65717;SDS011;52445;52.466;-1.016;2023-11-18T15:08:55;5.65;;;1.23;;
65717;SDS011;52445;52.466;-1.016;2023-11-18T15:11:23;7.35;;;1.27;;
65717;SDS011;52445;52.466;-1.016;2023-11-18T15:13:51;7.35;;;1.60;;
65717;SDS011;52445;52.466;-1.016;2023-11-18T15:16:20;10.45;;;2.22;;